SKUI

Details ICAO SKUI (UIB)
Name EL CARANO
Region Colombia
Timezone America/Bogota (UTC-5.0)
Plans Departing 10
Arriving 7
Stats Elevation 204 ft / 62 m (AMSL)
Location 5.690759° -76.641182°
Runways 1
Magnetic Variation 5.752° W
Sunrise 2017-12-12 11:07:56 UTC / 2017-12-12 06:07:56 Local
Sunset 2017-12-12 22:55:43 UTC / 2017-12-12 17:55:43 Local
Advertisement - Login to hide

Runways

ID Width Length Bearing (true) Bearing (mag) Surface Threshold Offset Overrun Length
13 98 ft / 30 m 4,599 ft / 1,402 m 122.56° 128.31° Asphalt 0 ft / 0 m 0 ft / 0 m
31 98 ft / 30 m 4,599 ft / 1,402 m 302.56° 308.31° Asphalt 280 ft / 85 m 0 ft / 0 m

Map

Weather


0- 5 10 15 20 25 30 35+ Temperature / ° C

Clouds and Precipitation
Forecast for 2017-12-12 18:00 UTC. Updated 32 minutes ago

Ground ~20,000 ft ~40,000 ft Winds

METAR

SKUI 121700Z 23005KT 9999 BKN018 29/24 A2989

TAF

Not found

Frequencies

Tower 118.40 MHz TWR
Warning: Do not use this data for real-world aviation or navigation. No guarantee of current accuracy is given.